createdAt,value
2023-09-09T00:02:23.540Z,9.59
2023-09-09T00:04:52.778Z,9.59
2023-09-09T00:07:19.235Z,9.59
2023-09-09T00:09:45.694Z,9.61
2023-09-09T00:12:12.175Z,9.60
2023-09-09T00:14:38.714Z,9.58
2023-09-09T00:17:07.017Z,9.56
2023-09-09T00:19:34.562Z,9.54
2023-09-09T00:22:01.274Z,9.51
2023-09-09T00:24:27.964Z,9.49
2023-09-09T00:26:56.001Z,9.47
2023-09-09T00:29:22.566Z,9.47
2023-09-09T00:31:50.366Z,9.45
2023-09-09T00:34:16.891Z,9.45
2023-09-09T00:36:43.592Z,9.42
2023-09-09T00:39:10.087Z,9.41
2023-09-09T00:41:36.601Z,9.41
2023-09-09T00:44:03.186Z,9.42
2023-09-09T00:46:30.358Z,9.43
2023-09-09T00:48:56.883Z,9.41
2023-09-09T00:51:23.313Z,9.39
2023-09-09T00:53:50.582Z,9.37
2023-09-09T00:56:17.095Z,9.35
2023-09-09T00:58:43.706Z,9.33
2023-09-09T01:01:10.091Z,9.31
2023-09-09T01:03:36.930Z,9.30
2023-09-09T01:06:04.011Z,9.31
2023-09-09T01:08:31.041Z,9.31
2023-09-09T01:10:57.645Z,9.29
2023-09-09T01:13:24.245Z,9.27
2023-09-09T01:15:51.334Z,9.26
2023-09-09T01:18:17.982Z,9.25
2023-09-09T01:20:46.782Z,9.28
2023-09-09T01:23:13.213Z,9.31
2023-09-09T01:25:39.831Z,9.34
2023-09-09T01:28:06.356Z,9.33
2023-09-09T01:30:32.865Z,9.30
2023-09-09T01:32:59.486Z,9.24
2023-09-09T01:35:25.835Z,9.18
2023-09-09T01:37:52.499Z,9.11
2023-09-09T01:40:18.866Z,9.05
2023-09-09T01:42:47.963Z,9.01
2023-09-09T01:45:14.450Z,8.99
2023-09-09T01:47:41.438Z,8.95
2023-09-09T01:50:08.486Z,8.91
2023-09-09T01:52:35.053Z,8.89
2023-09-09T01:55:01.465Z,8.86
2023-09-09T01:57:29.780Z,8.81
2023-09-09T01:59:56.863Z,8.78
2023-09-09T02:02:23.422Z,8.75
2023-09-09T02:04:50.075Z,8.71
2023-09-09T02:07:16.564Z,8.66
2023-09-09T02:09:43.092Z,8.61
2023-09-09T02:12:09.435Z,8.55
2023-09-09T02:14:35.941Z,8.51
2023-09-09T02:17:04.356Z,8.48
2023-09-09T02:19:31.100Z,8.48
2023-09-09T02:21:57.555Z,8.46
2023-09-09T02:24:23.927Z,8.44
2023-09-09T02:26:50.653Z,8.41
2023-09-09T02:29:17.830Z,8.37
2023-09-09T02:31:44.361Z,8.32
2023-09-09T02:34:10.817Z,8.28
2023-09-09T02:36:43.736Z,8.27
2023-09-09T02:39:10.848Z,8.24
2023-09-09T02:41:37.521Z,8.18
2023-09-09T02:44:04.203Z,8.13
2023-09-09T02:46:31.014Z,8.06
2023-09-09T02:48:57.504Z,7.98
2023-09-09T02:51:24.366Z,7.94
2023-09-09T02:53:50.853Z,7.92
2023-09-09T02:56:18.361Z,7.91
2023-09-09T02:58:44.826Z,7.89
2023-09-09T03:01:11.739Z,7.87
2023-09-09T03:03:38.397Z,7.83
2023-09-09T03:06:06.229Z,7.78
2023-09-09T03:08:32.731Z,7.73
2023-09-09T03:10:59.384Z,7.69
2023-09-09T03:13:26.419Z,7.66
2023-09-09T03:15:53.698Z,7.63
2023-09-09T03:18:20.505Z,7.60
2023-09-09T03:20:47.308Z,7.55
2023-09-09T03:23:13.690Z,7.52
2023-09-09T03:25:40.183Z,7.47
2023-09-09T03:28:06.747Z,7.45
2023-09-09T03:31:11.938Z,7.43
2023-09-09T03:33:39.771Z,7.44
2023-09-09T03:36:07.364Z,7.47
2023-09-09T03:38:34.266Z,7.49
2023-09-09T03:41:00.590Z,7.52
2023-09-09T03:43:27.323Z,7.56
2023-09-09T03:45:57.026Z,7.59
2023-09-09T03:48:24.398Z,7.64
2023-09-09T03:50:50.985Z,7.69
2023-09-09T03:53:17.409Z,7.75
2023-09-09T03:55:44.067Z,7.81
2023-09-09T03:58:10.462Z,7.88
2023-09-09T04:00:37.044Z,7.95
2023-09-09T04:03:03.824Z,8.03
2023-09-09T04:05:30.746Z,8.12
2023-09-09T04:07:58.862Z,8.22
2023-09-09T04:10:25.362Z,8.32
2023-09-09T04:12:51.740Z,8.42
2023-09-09T04:15:18.703Z,8.53
2023-09-09T04:17:45.497Z,8.65
2023-09-09T04:20:12.016Z,8.76
2023-09-09T04:22:39.360Z,8.85
2023-09-09T04:25:05.977Z,8.94
2023-09-09T04:27:33.073Z,9.06
2023-09-09T04:29:59.769Z,9.20
2023-09-09T04:32:27.007Z,9.33
2023-09-09T04:34:53.719Z,9.49
2023-09-09T04:37:20.295Z,9.67
2023-09-09T04:39:46.693Z,9.87
2023-09-09T04:42:13.208Z,10.07
2023-09-09T04:44:39.823Z,10.27
2023-09-09T04:47:06.470Z,10.48
2023-09-09T04:49:32.992Z,10.67
2023-09-09T04:51:59.476Z,10.86
2023-09-09T04:54:26.006Z,11.06
2023-09-09T04:56:52.757Z,11.23
2023-09-09T04:59:19.354Z,11.42
2023-09-09T05:01:46.213Z,11.61
2023-09-09T05:04:12.703Z,11.79
2023-09-09T05:06:39.344Z,11.96
2023-09-09T05:09:05.926Z,12.14
2023-09-09T05:11:32.581Z,12.32
2023-09-09T05:13:58.991Z,12.52
2023-09-09T05:16:27.510Z,12.72
2023-09-09T05:18:54.147Z,12.93
2023-09-09T05:21:20.664Z,13.14
2023-09-09T05:23:47.405Z,13.37
2023-09-09T05:26:14.092Z,13.60
2023-09-09T05:28:40.902Z,13.84
2023-09-09T05:31:07.553Z,14.05
2023-09-09T05:33:34.480Z,14.29
2023-09-09T05:36:01.352Z,14.53
2023-09-09T05:38:29.941Z,14.80
2023-09-09T05:40:56.671Z,15.07
2023-09-09T05:43:23.054Z,15.34
2023-09-09T05:45:49.939Z,15.61
2023-09-09T05:48:16.878Z,15.86
2023-09-09T05:50:43.432Z,16.10
2023-09-09T05:53:10.203Z,16.32
2023-09-09T05:55:36.974Z,16.55
2023-09-09T05:58:03.694Z,16.79
2023-09-09T06:00:30.324Z,17.03
2023-09-09T06:02:56.769Z,17.27
2023-09-09T06:05:23.264Z,17.49
2023-09-09T06:07:49.747Z,17.69
2023-09-09T06:10:16.247Z,17.87
2023-09-09T06:12:43.048Z,18.00
2023-09-09T06:15:10.340Z,18.11
2023-09-09T06:17:40.158Z,18.24
2023-09-09T06:20:07.619Z,18.34
2023-09-09T06:22:35.328Z,18.46
2023-09-09T06:25:02.183Z,18.61
2023-09-09T06:27:28.756Z,18.75
2023-09-09T06:29:55.441Z,18.89
2023-09-09T06:32:22.761Z,19.03
2023-09-09T06:34:49.402Z,19.15
2023-09-09T06:37:16.057Z,19.22
2023-09-09T06:39:42.513Z,19.30
2023-09-09T06:42:09.140Z,19.43
2023-09-09T06:44:35.801Z,19.53
2023-09-09T06:47:02.336Z,19.61
2023-09-09T06:49:28.919Z,19.73
2023-09-09T06:51:55.426Z,19.84
2023-09-09T06:54:21.900Z,19.90
2023-09-09T06:56:48.379Z,19.96
2023-09-09T06:59:15.203Z,20.05
2023-09-09T07:01:41.666Z,20.08
2023-09-09T07:04:08.840Z,20.13
2023-09-09T07:06:35.948Z,20.21
2023-09-09T07:09:02.880Z,20.29
2023-09-09T07:11:29.735Z,20.39
2023-09-09T07:13:56.236Z,20.50
2023-09-09T07:16:23.457Z,20.60
2023-09-09T07:18:50.221Z,20.58
2023-09-09T07:21:16.744Z,20.56
2023-09-09T07:23:43.116Z,20.67
2023-09-09T07:26:09.631Z,20.73
2023-09-09T07:28:36.358Z,20.78
2023-09-09T07:31:03.312Z,20.86
2023-09-09T07:33:30.406Z,20.96
2023-09-09T07:35:57.089Z,21.06
2023-09-09T07:38:23.690Z,21.14
2023-09-09T07:40:58.571Z,21.29
2023-09-09T07:43:25.983Z,21.48
2023-09-09T07:45:52.646Z,21.64
2023-09-09T07:48:19.428Z,21.76
2023-09-09T07:50:53.048Z,21.86
2023-09-09T07:53:19.862Z,21.84
2023-09-09T07:55:49.498Z,21.73
2023-09-09T07:58:16.686Z,21.61
2023-09-09T08:00:47.466Z,21.54
2023-09-09T08:03:14.520Z,21.55
2023-09-09T08:05:41.189Z,21.65
2023-09-09T08:08:07.958Z,21.76
2023-09-09T08:10:34.440Z,21.80
2023-09-09T08:13:03.872Z,21.67
2023-09-09T08:15:40.157Z,21.46
2023-09-09T08:18:07.877Z,21.33
2023-09-09T08:20:34.430Z,21.23
2023-09-09T08:23:00.844Z,21.16
2023-09-09T08:25:27.325Z,21.13
2023-09-09T08:27:53.911Z,21.15
2023-09-09T08:30:20.581Z,21.18
2023-09-09T08:32:47.215Z,21.23
2023-09-09T08:35:13.730Z,21.33
2023-09-09T08:37:40.237Z,21.47
2023-09-09T08:40:07.304Z,21.64
2023-09-09T08:43:02.834Z,21.78
2023-09-09T08:45:42.069Z,21.94
2023-09-09T08:48:08.868Z,22.05
2023-09-09T08:50:41.231Z,22.00
2023-09-09T08:53:07.779Z,21.83
2023-09-09T08:55:34.328Z,21.61
2023-09-09T08:58:01.103Z,21.51
2023-09-09T09:00:34.250Z,21.55
2023-09-09T09:03:02.137Z,21.58
2023-09-09T09:05:30.469Z,21.59
2023-09-09T09:07:57.275Z,21.49
2023-09-09T09:10:24.065Z,21.42
2023-09-09T09:12:50.445Z,21.37
2023-09-09T09:15:17.411Z,21.24
2023-09-09T09:17:44.884Z,21.12
2023-09-09T09:20:24.961Z,21.12
2023-09-09T09:22:51.454Z,21.20
2023-09-09T09:25:21.804Z,21.35
2023-09-09T09:27:48.271Z,21.60
2023-09-09T09:30:14.745Z,21.82
2023-09-09T09:32:41.719Z,21.91
2023-09-09T09:35:24.332Z,21.97
2023-09-09T09:37:52.950Z,22.12
2023-09-09T09:40:19.639Z,22.22
2023-09-09T09:42:46.086Z,22.24
2023-09-09T09:45:13.117Z,22.26
2023-09-09T09:47:43.765Z,22.35
2023-09-09T09:50:20.020Z,22.44
2023-09-09T09:52:49.073Z,22.52
2023-09-09T09:55:18.867Z,22.50
2023-09-09T09:57:46.342Z,22.45
2023-09-09T10:00:16.448Z,22.43
2023-09-09T10:02:43.890Z,22.40
2023-09-09T10:05:11.623Z,22.38
2023-09-09T10:07:39.118Z,22.43
2023-09-09T10:10:09.664Z,22.53
2023-09-09T10:12:47.941Z,22.57
2023-09-09T10:15:16.405Z,22.61
2023-09-09T10:17:43.532Z,22.63
2023-09-09T10:20:11.520Z,22.61
2023-09-09T10:22:40.030Z,22.64
2023-09-09T10:25:07.394Z,22.71
2023-09-09T10:27:34.033Z,22.71
2023-09-09T10:30:00.664Z,22.58
2023-09-09T10:32:27.154Z,22.43
2023-09-09T10:34:53.974Z,22.32
2023-09-09T10:37:20.582Z,22.34
2023-09-09T10:39:47.609Z,22.36
2023-09-09T10:42:15.187Z,22.32
2023-09-09T10:44:41.628Z,22.28
2023-09-09T10:47:08.525Z,22.32
2023-09-09T10:49:35.071Z,22.38
2023-09-09T10:52:04.922Z,22.45
2023-09-09T10:54:32.434Z,22.47
2023-09-09T10:57:02.944Z,22.43
2023-09-09T10:59:30.819Z,22.41
2023-09-09T11:02:12.375Z,22.40
2023-09-09T11:04:39.879Z,22.41
2023-09-09T11:07:10.216Z,22.35
2023-09-09T11:09:37.496Z,22.25
2023-09-09T11:12:14.285Z,22.21
2023-09-09T11:14:43.900Z,22.30
2023-09-09T11:17:11.315Z,22.37
2023-09-09T11:19:38.029Z,22.37
2023-09-09T11:22:05.176Z,22.40
2023-09-09T11:24:31.585Z,22.40
2023-09-09T11:26:58.183Z,22.41
2023-09-09T11:29:36.280Z,22.40
2023-09-09T11:32:08.713Z,22.41
2023-09-09T11:34:35.710Z,22.48
2023-09-09T11:37:03.380Z,22.60
2023-09-09T11:39:30.034Z,22.74
2023-09-09T11:41:56.434Z,22.81
2023-09-09T11:44:22.913Z,22.84
2023-09-09T11:46:50.250Z,22.84
2023-09-09T11:49:17.003Z,22.86
2023-09-09T11:51:43.961Z,22.88
2023-09-09T11:54:13.772Z,22.79
2023-09-09T11:56:41.028Z,22.70
2023-09-09T11:59:08.094Z,22.66
2023-09-09T12:01:44.914Z,22.63
2023-09-09T12:04:12.370Z,22.61
2023-09-09T12:06:43.922Z,22.58
2023-09-09T12:09:10.524Z,22.58
2023-09-09T12:11:37.039Z,22.65
2023-09-09T12:14:03.773Z,22.68
2023-09-09T12:16:31.477Z,22.70
2023-09-09T12:18:58.165Z,22.64
2023-09-09T12:21:24.540Z,22.54
2023-09-09T12:23:56.937Z,22.48
2023-09-09T12:26:23.524Z,22.44
2023-09-09T12:29:11.180Z,22.41
2023-09-09T12:31:53.472Z,22.38
2023-09-09T12:34:21.257Z,22.34
2023-09-09T12:36:48.673Z,22.30
2023-09-09T12:39:33.330Z,22.31
2023-09-09T12:42:07.932Z,22.31
2023-09-09T12:44:48.120Z,22.27
2023-09-09T12:47:20.606Z,22.30
2023-09-09T12:49:47.327Z,22.33
2023-09-09T12:52:14.084Z,22.31
2023-09-09T12:54:40.618Z,22.25
2023-09-09T12:57:07.203Z,22.20
2023-09-09T12:59:33.795Z,22.15
2023-09-09T13:02:00.329Z,22.10
2023-09-09T13:04:26.767Z,22.08
2023-09-09T13:06:53.830Z,22.12
2023-09-09T13:09:20.401Z,22.16
2023-09-09T13:11:46.998Z,22.14
2023-09-09T13:16:47.399Z,22.01
2023-09-09T13:19:14.001Z,22.00
2023-09-09T13:21:40.456Z,22.03
2023-09-09T13:24:07.029Z,21.99
2023-09-09T13:26:33.765Z,21.96
2023-09-09T13:29:00.259Z,21.94
2023-09-09T13:31:26.616Z,21.93
2023-09-09T13:33:53.243Z,21.90
2023-09-09T13:36:19.769Z,21.86
2023-09-09T13:38:46.930Z,21.81
2023-09-09T13:41:13.298Z,21.78
2023-09-09T13:43:40.553Z,21.75
2023-09-09T13:46:07.042Z,21.72
2023-09-09T13:48:33.608Z,21.71
2023-09-09T13:50:59.960Z,21.70
2023-09-09T13:53:26.361Z,21.67
2023-09-09T13:55:52.844Z,21.60
2023-09-09T13:58:21.763Z,21.50
2023-09-09T14:00:50.380Z,21.45
2023-09-09T14:03:17.451Z,21.42
2023-09-09T14:05:43.921Z,21.40
2023-09-09T14:08:10.306Z,21.37
2023-09-09T14:10:36.694Z,21.32
2023-09-09T14:13:03.265Z,21.26
2023-09-09T14:15:31.963Z,21.20
2023-09-09T14:17:58.641Z,21.15
2023-09-09T14:20:26.244Z,21.10
2023-09-09T14:22:52.763Z,21.06
2023-09-09T14:25:19.313Z,21.02
2023-09-09T14:27:45.828Z,20.98
2023-09-09T14:30:12.362Z,20.93
2023-09-09T14:32:39.323Z,20.86
2023-09-09T14:35:06.561Z,20.81
2023-09-09T14:37:33.274Z,20.76
2023-09-09T14:39:59.919Z,20.70
2023-09-09T14:42:26.475Z,20.64
2023-09-09T14:44:52.840Z,20.59
2023-09-09T14:47:19.352Z,20.56
2023-09-09T14:49:45.838Z,20.52
2023-09-09T14:52:12.208Z,20.46
2023-09-09T14:54:38.690Z,20.40
2023-09-09T14:57:05.253Z,20.34
2023-09-09T14:59:32.141Z,20.30
2023-09-09T15:01:58.784Z,20.26
2023-09-09T15:04:25.482Z,20.22
2023-09-09T15:06:52.038Z,20.17
2023-09-09T15:09:18.487Z,20.13
2023-09-09T15:11:44.889Z,20.08
2023-09-09T15:14:11.704Z,20.02
2023-09-09T15:16:49.769Z,19.96
2023-09-09T15:19:17.401Z,19.90
2023-09-09T15:21:43.778Z,19.85
2023-09-09T15:24:10.426Z,19.81
2023-09-09T15:26:37.868Z,19.76
2023-09-09T15:29:05.300Z,19.71
2023-09-09T15:31:31.801Z,19.65
2023-09-09T15:33:58.395Z,19.57
2023-09-09T15:36:25.056Z,19.49
2023-09-09T15:38:51.844Z,19.41
2023-09-09T15:41:18.657Z,19.34
2023-09-09T15:43:46.590Z,19.27
2023-09-09T15:46:13.313Z,19.19
2023-09-09T15:48:40.128Z,19.10
2023-09-09T15:51:06.813Z,19.00
2023-09-09T15:53:33.609Z,18.91
2023-09-09T15:56:00.048Z,18.80
2023-09-09T15:58:26.664Z,18.70
2023-09-09T16:00:53.126Z,18.60
2023-09-09T16:03:20.692Z,18.50
2023-09-09T16:05:47.092Z,18.40
2023-09-09T16:08:13.652Z,18.30
2023-09-09T16:10:40.036Z,18.21
2023-09-09T16:13:06.377Z,18.08
2023-09-09T16:15:33.458Z,17.96
2023-09-09T16:18:00.512Z,17.85
2023-09-09T16:20:26.839Z,17.70
2023-09-09T16:22:53.415Z,17.52
2023-09-09T16:25:19.883Z,17.32
2023-09-09T16:27:46.374Z,17.12
2023-09-09T16:30:13.133Z,16.95
2023-09-09T16:32:39.682Z,16.76
2023-09-09T16:35:13.324Z,16.59
2023-09-09T16:37:39.812Z,16.42
2023-09-09T16:40:06.905Z,16.23
2023-09-09T16:42:33.456Z,16.06
2023-09-09T16:44:59.976Z,15.87
2023-09-09T16:47:26.582Z,15.71
2023-09-09T16:49:53.261Z,15.55
2023-09-09T16:52:19.732Z,15.39
2023-09-09T16:54:46.192Z,15.22
2023-09-09T16:57:12.678Z,15.05
2023-09-09T16:59:39.686Z,14.88
2023-09-09T17:02:06.514Z,14.70
2023-09-09T17:04:33.327Z,14.53
2023-09-09T17:06:59.884Z,14.37
2023-09-09T17:09:26.345Z,14.20
2023-09-09T17:11:52.755Z,14.05
2023-09-09T17:14:19.307Z,13.90
2023-09-09T17:16:46.146Z,13.76
2023-09-09T17:19:13.173Z,13.62
2023-09-09T17:21:39.705Z,13.49
2023-09-09T17:24:06.877Z,13.36
2023-09-09T17:26:33.327Z,13.23
2023-09-09T17:29:01.386Z,13.11
2023-09-09T17:31:28.324Z,13.00
2023-09-09T17:33:54.848Z,12.88
2023-09-09T17:36:21.690Z,12.75
2023-09-09T17:39:09.239Z,12.63
2023-09-09T17:41:35.949Z,12.47
2023-09-09T17:44:03.566Z,12.35
2023-09-09T17:46:30.804Z,12.23
2023-09-09T17:49:00.382Z,12.13
2023-09-09T17:51:27.233Z,12.02
2023-09-09T17:53:53.668Z,11.94
2023-09-09T17:56:22.817Z,11.85
2023-09-09T17:58:53.755Z,11.79
2023-09-09T18:01:21.043Z,11.73
2023-09-09T18:03:49.468Z,11.68
2023-09-09T18:06:18.690Z,11.62
2023-09-09T18:08:45.357Z,11.56
2023-09-09T18:11:11.891Z,11.52
2023-09-09T18:13:38.394Z,11.45
2023-09-09T18:16:05.643Z,11.37
2023-09-09T18:18:32.448Z,11.27
2023-09-09T18:20:58.954Z,11.18
2023-09-09T18:23:25.379Z,11.09
2023-09-09T18:25:58.330Z,11.01
2023-09-09T18:28:27.588Z,10.94
2023-09-09T18:30:58.357Z,10.88
2023-09-09T18:33:26.105Z,10.82
2023-09-09T18:35:55.793Z,10.75
2023-09-09T18:38:22.252Z,10.66
2023-09-09T18:40:50.379Z,10.57
2023-09-09T18:43:16.908Z,10.49
2023-09-09T18:45:44.126Z,10.43
2023-09-09T18:48:10.797Z,10.35
2023-09-09T18:50:37.194Z,10.30
2023-09-09T18:53:03.822Z,10.25
2023-09-09T18:55:30.727Z,10.17
2023-09-09T18:57:57.522Z,10.10
2023-09-09T19:00:24.199Z,10.02
2023-09-09T19:02:54.640Z,9.92
2023-09-09T19:05:21.971Z,9.83
2023-09-09T19:07:48.662Z,9.74
2023-09-09T19:10:15.453Z,9.65
2023-09-09T19:12:41.920Z,9.59
2023-09-09T19:15:09.619Z,9.53
2023-09-09T19:17:36.382Z,9.49
2023-09-09T19:20:03.615Z,9.44
2023-09-09T19:22:30.326Z,9.38
2023-09-09T19:24:57.191Z,9.32
2023-09-09T19:27:24.224Z,9.26
2023-09-09T19:29:51.347Z,9.21
2023-09-09T19:32:18.328Z,9.16
2023-09-09T19:34:45.947Z,9.12
2023-09-09T19:37:12.739Z,9.08
2023-09-09T19:39:39.440Z,9.03
2023-09-09T19:42:06.106Z,8.97
2023-09-09T19:44:32.726Z,8.88
2023-09-09T19:46:59.487Z,8.80
2023-09-09T19:49:26.390Z,8.72
2023-09-09T19:51:52.893Z,8.65
2023-09-09T19:54:19.881Z,8.60
2023-09-09T19:56:46.831Z,8.57
2023-09-09T19:59:14.435Z,8.54
2023-09-09T20:01:40.985Z,8.48
2023-09-09T20:04:07.490Z,8.42
2023-09-09T20:06:35.555Z,8.36
2023-09-09T20:09:02.115Z,8.31
2023-09-09T20:11:28.667Z,8.28
2023-09-09T20:13:55.111Z,8.25
2023-09-09T20:16:22.002Z,8.21
2023-09-09T20:18:48.626Z,8.17
2023-09-09T20:21:14.984Z,8.11
2023-09-09T20:23:41.425Z,8.05
2023-09-09T20:26:07.917Z,7.98
2023-09-09T20:28:34.694Z,7.93
2023-09-09T20:31:01.157Z,7.90
2023-09-09T20:33:27.701Z,7.88
2023-09-09T20:35:54.174Z,7.88
2023-09-09T20:38:20.822Z,7.86
2023-09-09T20:40:47.431Z,7.83
2023-09-09T20:43:14.225Z,7.78
2023-09-09T20:45:40.710Z,7.74
2023-09-09T20:48:07.382Z,7.69
2023-09-09T20:50:33.951Z,7.65
2023-09-09T20:53:01.458Z,7.63
2023-09-09T20:55:28.012Z,7.61
2023-09-09T20:57:55.597Z,7.57
2023-09-09T21:00:22.096Z,7.54
2023-09-09T21:02:51.190Z,7.50
2023-09-09T21:05:18.116Z,7.45
2023-09-09T21:07:44.709Z,7.42
2023-09-09T21:10:11.231Z,7.38
2023-09-09T21:12:38.352Z,7.34
2023-09-09T21:15:06.092Z,7.29
2023-09-09T21:17:33.393Z,7.24
2023-09-09T21:20:03.193Z,7.18
2023-09-09T21:22:30.862Z,7.12
2023-09-09T21:24:59.587Z,7.07
2023-09-09T21:27:26.077Z,7.03
2023-09-09T21:29:52.529Z,7.01
2023-09-09T21:32:19.046Z,6.98
2023-09-09T21:34:45.660Z,6.95
2023-09-09T21:37:12.279Z,6.90
2023-09-09T21:39:38.860Z,6.87
2023-09-09T21:42:05.328Z,6.84
2023-09-09T21:44:31.922Z,6.79
2023-09-09T21:46:59.393Z,6.76
2023-09-09T21:49:25.864Z,6.74
2023-09-09T21:51:52.283Z,6.72
2023-09-09T21:54:18.677Z,6.68
2023-09-09T21:56:45.143Z,6.65
2023-09-09T21:59:11.862Z,6.61
2023-09-09T22:01:38.580Z,6.57
2023-09-09T22:04:05.103Z,6.53
2023-09-09T22:06:31.730Z,6.50
2023-09-09T22:08:58.265Z,6.47
2023-09-09T22:11:25.983Z,6.44
2023-09-09T22:13:52.692Z,6.42
2023-09-09T22:16:19.692Z,6.38
2023-09-09T22:18:46.292Z,6.36
2023-09-09T22:21:12.621Z,6.32
2023-09-09T22:23:38.939Z,6.28
2023-09-09T22:26:23.855Z,6.26
2023-09-09T22:28:50.544Z,6.25
2023-09-09T22:31:17.070Z,6.24
2023-09-09T22:33:43.533Z,6.21
2023-09-09T22:36:10.249Z,6.18
2023-09-09T22:38:37.092Z,6.14
2023-09-09T22:41:03.896Z,6.09
2023-09-09T22:43:30.455Z,6.06
2023-09-09T22:45:57.065Z,6.04
2023-09-09T22:48:23.837Z,6.01
2023-09-09T22:50:50.272Z,5.99
2023-09-09T22:53:16.891Z,5.98
2023-09-09T22:55:43.311Z,5.94
2023-09-09T22:58:09.900Z,5.91
2023-09-09T23:00:36.374Z,5.86
2023-09-09T23:03:03.067Z,5.83
2023-09-09T23:05:29.592Z,5.82
2023-09-09T23:07:56.216Z,5.81
2023-09-09T23:10:23.626Z,5.80
2023-09-09T23:12:50.158Z,5.78
2023-09-09T23:15:18.053Z,5.75
2023-09-09T23:17:44.701Z,5.71
2023-09-09T23:20:16.069Z,5.66
2023-09-09T23:22:45.195Z,5.62
2023-09-09T23:25:14.804Z,5.60
2023-09-09T23:27:41.431Z,5.60
2023-09-09T23:30:10.183Z,5.58
2023-09-09T23:32:37.466Z,5.55
2023-09-09T23:35:04.589Z,5.52
2023-09-09T23:37:31.313Z,5.48
2023-09-09T23:39:57.882Z,5.44
2023-09-09T23:42:24.521Z,5.42
2023-09-09T23:44:50.972Z,5.41
2023-09-09T23:47:17.607Z,5.38
2023-09-09T23:49:44.090Z,5.38
2023-09-09T23:52:10.526Z,5.36
2023-09-09T23:54:36.888Z,5.31
2023-09-09T23:57:05.440Z,5.28
2023-09-09T23:59:31.846Z,5.24
